sensor_id;sensor_type;location;lat;lon;timestamp;pressure;altitude;pressure_sealevel;temperature;humidity
52393;BME280;38320;39.764;2.710;2023-02-10T09:24:27;103261.00;;;-0.40;88.63
52393;BME280;38320;39.764;2.710;2023-02-10T09:26:52;103245.75;;;1.07;98.55
52393;BME280;38320;39.764;2.710;2023-02-10T09:29:18;103245.13;;;1.26;92.09
52393;BME280;38320;39.764;2.710;2023-02-10T09:31:43;103260.03;;;1.32;84.77
52393;BME280;38320;39.764;2.710;2023-02-10T09:34:09;103244.75;;;0.94;82.39
52393;BME280;38320;39.764;2.710;2023-02-10T09:36:35;103257.53;;;0.70;81.39
52393;BME280;38320;39.764;2.710;2023-02-10T09:39:00;103260.53;;;0.37;82.23
52393;BME280;38320;39.764;2.710;2023-02-10T09:54:22;103259.94;;;2.16;86.46
52393;BME280;38320;39.764;2.710;2023-02-10T09:56:47;103258.09;;;2.04;87.61
52393;BME280;38320;39.764;2.710;2023-02-10T09:59:20;103259.75;;;1.91;88.38
52393;BME280;38320;39.764;2.710;2023-02-10T10:01:55;103257.97;;;1.85;89.47
52393;BME280;38320;39.764;2.710;2023-02-10T10:04:23;103249.19;;;1.85;90.30
52393;BME280;38320;39.764;2.710;2023-02-10T10:06:53;103257.09;;;1.86;89.87
52393;BME280;38320;39.764;2.710;2023-02-10T10:09:30;103263.84;;;1.62;88.89
52393;BME280;38320;39.764;2.710;2023-02-10T10:11:58;103262.66;;;1.34;89.83
52393;BME280;38320;39.764;2.710;2023-02-10T10:17:25;103262.38;;;1.07;90.63
52393;BME280;38320;39.764;2.710;2023-02-10T10:30:59;103257.97;;;1.05;90.38
52393;BME280;38320;39.764;2.710;2023-02-10T10:33:37;103263.91;;;0.90;88.94
52393;BME280;38320;39.764;2.710;2023-02-10T10:36:10;103253.75;;;0.48;88.23
52393;BME280;38320;39.764;2.710;2023-02-10T10:38:42;103260.69;;;0.48;89.32
52393;BME280;38320;39.764;2.710;2023-02-10T10:41:12;103250.06;;;0.37;90.02
52393;BME280;38320;39.764;2.710;2023-02-10T10:43:48;103254.06;;;0.73;91.05
52393;BME280;38320;39.764;2.710;2023-02-10T10:46:21;103252.47;;;0.83;90.89
52393;BME280;38320;39.764;2.710;2023-02-10T10:48:48;103266.53;;;0.91;90.74
52393;BME280;38320;39.764;2.710;2023-02-10T10:51:14;103262.97;;;0.88;91.05
52393;BME280;38320;39.764;2.710;2023-02-10T10:58:49;103278.09;;;1.89;96.16
52393;BME280;38320;39.764;2.710;2023-02-10T11:01:16;103278.06;;;3.25;95.68
52393;BME280;38320;39.764;2.710;2023-02-10T11:03:41;103270.44;;;2.16;83.79
52393;BME280;38320;39.764;2.710;2023-02-10T11:06:09;103267.91;;;1.34;81.45
52393;BME280;38320;39.764;2.710;2023-02-10T11:08:37;103284.69;;;0.77;83.66
52393;BME280;38320;39.764;2.710;2023-02-10T11:11:09;103275.38;;;0.39;87.53
52393;BME280;38320;39.764;2.710;2023-02-10T11:13:37;103263.00;;;0.27;89.97
52393;BME280;38320;39.764;2.710;2023-02-10T11:16:13;103278.78;;;0.34;92.48
52393;BME280;38320;39.764;2.710;2023-02-10T11:18:59;103274.78;;;0.56;94.49
52393;BME280;38320;39.764;2.710;2023-02-10T11:21:38;103271.19;;;0.51;94.61
52393;BME280;38320;39.764;2.710;2023-02-10T11:24:27;103267.91;;;0.63;94.71
52393;BME280;38320;39.764;2.710;2023-02-10T11:27:05;103258.41;;;0.69;95.30
52393;BME280;38320;39.764;2.710;2023-02-10T11:29:35;103242.72;;;0.74;94.94
52393;BME280;38320;39.764;2.710;2023-02-10T11:32:05;103243.78;;;0.87;94.74
52393;BME280;38320;39.764;2.710;2023-02-10T11:34:44;103243.91;;;0.98;94.71
52393;BME280;38320;39.764;2.710;2023-02-10T11:37:29;103237.25;;;1.26;95.76
52393;BME280;38320;39.764;2.710;2023-02-10T11:39:58;103233.88;;;1.38;95.37
52393;BME280;38320;39.764;2.710;2023-02-10T11:42:33;103219.81;;;1.29;93.52
52393;BME280;38320;39.764;2.710;2023-02-10T11:45:11;103225.03;;;1.27;93.64
52393;BME280;38320;39.764;2.710;2023-02-10T11:47:40;103205.72;;;1.19;93.38
52393;BME280;38320;39.764;2.710;2023-02-10T11:50:24;103219.09;;;1.45;93.97
52393;BME280;38320;39.764;2.710;2023-02-10T11:52:50;103208.66;;;1.50;93.93
52393;BME280;38320;39.764;2.710;2023-02-10T11:55:16;103197.31;;;1.51;93.97
52393;BME280;38320;39.764;2.710;2023-02-10T11:57:58;103202.56;;;1.54;92.01
52393;BME280;38320;39.764;2.710;2023-02-10T12:00:58;103213.00;;;1.48;91.07
52393;BME280;38320;39.764;2.710;2023-02-10T12:09:15;103212.09;;;2.60;99.09
52393;BME280;38320;39.764;2.710;2023-02-10T12:12:02;103219.38;;;3.47;95.70
52393;BME280;38320;39.764;2.710;2023-02-10T12:17:32;103216.81;;;1.82;89.14
52393;BME280;38320;39.764;2.710;2023-02-10T12:22:51;103207.00;;;1.60;94.45
52393;BME280;38320;39.764;2.710;2023-02-10T12:28:19;103204.06;;;2.34;99.63
52393;BME280;38320;39.764;2.710;2023-02-10T12:39:30;103207.34;;;2.03;93.05
52393;BME280;38320;39.764;2.710;2023-02-10T12:47:54;103214.22;;;1.86;96.38
52393;BME280;38320;39.764;2.710;2023-02-10T12:53:28;103209.41;;;2.48;100.00
52393;BME280;38320;39.764;2.710;2023-02-10T12:56:20;103209.69;;;3.19;100.00
52393;BME280;38320;39.764;2.710;2023-02-10T12:58:53;103200.13;;;3.93;100.00
52393;BME280;38320;39.764;2.710;2023-02-10T13:01:21;103192.13;;;4.47;100.00
52393;BME280;38320;39.764;2.710;2023-02-10T13:03:51;103185.81;;;4.90;100.00
52393;BME280;38320;39.764;2.710;2023-02-10T13:06:31;103196.13;;;5.32;100.00
52393;BME280;38320;39.764;2.710;2023-02-10T13:09:05;103187.97;;;5.63;99.58
52393;BME280;38320;39.764;2.710;2023-02-10T13:11:43;103186.84;;;5.96;96.43
52393;BME280;38320;39.764;2.710;2023-02-10T13:14:21;103179.56;;;6.23;93.68
52393;BME280;38320;39.764;2.710;2023-02-10T13:16:55;103179.25;;;6.51;91.06
52393;BME280;38320;39.764;2.710;2023-02-10T13:22:05;103180.38;;;7.01;88.94
52393;BME280;38320;39.764;2.710;2023-02-10T13:24:43;103187.97;;;7.25;87.34
52393;BME280;38320;39.764;2.710;2023-02-10T13:35:22;103179.78;;;7.95;74.51
52393;BME280;38320;39.764;2.710;2023-02-10T13:37:56;103165.28;;;8.15;74.11
52393;BME280;38320;39.764;2.710;2023-02-10T13:40:30;103165.00;;;8.30;71.98
52393;BME280;38320;39.764;2.710;2023-02-10T13:43:03;103171.75;;;8.47;73.08
